createdAt,value
2022-10-12T00:01:44.342Z,55.88
2022-10-12T00:04:16.355Z,51.47
2022-10-12T00:06:48.357Z,50.28
2022-10-12T00:09:17.694Z,51.80
2022-10-12T00:11:44.999Z,50.00
2022-10-12T00:14:16.958Z,51.38
2022-10-12T00:16:49.659Z,52.28
2022-10-12T00:19:21.583Z,53.10
2022-10-12T00:21:48.849Z,53.65
2022-10-12T00:24:18.222Z,53.22
2022-10-12T00:26:50.377Z,52.90
2022-10-12T00:29:25.194Z,54.63
2022-10-12T00:31:57.537Z,50.70
2022-10-12T00:34:24.927Z,51.25
2022-10-12T00:36:58.070Z,54.38
2022-10-12T00:39:25.492Z,51.13
2022-10-12T00:41:55.016Z,48.72
2022-10-12T00:44:44.391Z,52.28
2022-10-12T00:47:20.210Z,51.50
2022-10-12T00:50:02.863Z,51.03
2022-10-12T00:52:40.830Z,49.25
2022-10-12T00:55:15.145Z,51.08
2022-10-12T00:57:46.931Z,52.13
2022-10-12T01:00:17.567Z,51.20
2022-10-12T01:02:48.573Z,50.75
2022-10-12T01:05:20.010Z,50.95
2022-10-12T01:07:47.271Z,50.25
2022-10-12T01:10:16.761Z,47.70
2022-10-12T01:12:47.061Z,47.72
2022-10-12T01:15:21.384Z,47.22
2022-10-12T01:18:09.957Z,49.40
2022-10-12T01:20:58.490Z,47.55
2022-10-12T01:23:53.045Z,48.50
2022-10-12T01:26:43.371Z,49.35
2022-10-12T01:29:39.271Z,49.13
2022-10-12T01:32:22.021Z,48.15
2022-10-12T01:35:06.376Z,48.80
2022-10-12T01:37:58.445Z,47.70
2022-10-12T01:40:42.881Z,48.25
2022-10-12T01:43:09.997Z,48.97
2022-10-12T01:45:39.810Z,48.47
2022-10-12T01:48:10.226Z,48.10
2022-10-12T01:50:50.785Z,47.25
2022-10-12T01:53:27.889Z,48.80
2022-10-12T01:56:19.478Z,48.75
2022-10-12T01:59:01.844Z,47.65
2022-10-12T02:02:06.924Z,48.13
2022-10-12T02:04:52.119Z,48.53
2022-10-12T02:07:42.252Z,48.60
2022-10-12T02:10:21.140Z,49.28
2022-10-12T02:12:53.141Z,49.72
2022-10-12T02:17:53.762Z,42.85
2022-10-12T02:20:25.894Z,46.42
2022-10-12T02:23:14.802Z,46.17
2022-10-12T02:25:45.912Z,46.58
2022-10-12T02:28:16.901Z,49.13
2022-10-12T02:31:01.555Z,47.92
2022-10-12T02:34:01.460Z,44.83
2022-10-12T02:36:53.929Z,45.70
2022-10-12T02:39:33.519Z,46.95
2022-10-12T02:42:10.001Z,46.10
2022-10-12T02:44:40.147Z,46.53
2022-10-12T02:47:12.615Z,45.28
2022-10-12T02:49:46.655Z,45.30
2022-10-12T02:52:13.882Z,47.10
2022-10-12T02:54:43.356Z,45.65
2022-10-12T02:57:13.040Z,45.35
2022-10-12T02:59:45.218Z,45.63
2022-10-12T03:02:19.610Z,44.95
2022-10-12T03:04:46.907Z,44.03
2022-10-12T03:07:19.134Z,44.17
2022-10-12T03:09:48.612Z,43.47
2022-10-12T03:12:18.177Z,44.30
2022-10-12T03:17:15.564Z,45.65
2022-10-12T03:19:43.323Z,46.50
2022-10-12T03:22:12.388Z,47.50
2022-10-12T03:24:41.933Z,46.70
2022-10-12T03:27:12.262Z,43.20
2022-10-12T03:29:41.514Z,46.33
2022-10-12T03:32:08.690Z,48.13
2022-10-12T03:34:40.485Z,46.30
2022-10-12T03:37:07.605Z,46.45
2022-10-12T03:39:34.877Z,44.92
2022-10-12T03:42:04.476Z,44.50
2022-10-12T03:44:34.284Z,47.75
2022-10-12T03:47:08.204Z,46.42
2022-10-12T03:49:35.514Z,47.70
2022-10-12T03:52:05.271Z,46.35
2022-10-12T03:54:32.656Z,45.50
2022-10-12T03:57:04.505Z,44.33
2022-10-12T03:59:31.743Z,46.17
2022-10-12T04:02:03.347Z,45.30
2022-10-12T04:04:34.217Z,45.45
2022-10-12T04:07:06.227Z,45.05
2022-10-12T04:09:38.173Z,46.80
2022-10-12T04:12:05.337Z,44.20
2022-10-12T04:14:37.063Z,45.53
2022-10-12T04:17:07.493Z,42.88
2022-10-12T04:19:37.101Z,43.05
2022-10-12T04:22:06.403Z,45.00
2022-10-12T04:24:36.196Z,44.05
2022-10-12T04:27:06.402Z,42.03
2022-10-12T04:29:37.143Z,42.80
2022-10-12T04:32:07.712Z,45.60
2022-10-12T04:34:40.031Z,45.38
2022-10-12T04:37:14.087Z,42.38
2022-10-12T04:39:43.674Z,43.47
2022-10-12T04:42:11.096Z,40.78
2022-10-12T04:44:47.829Z,42.13
2022-10-12T04:47:19.931Z,42.40
2022-10-12T04:49:52.398Z,41.13
2022-10-12T04:52:22.170Z,39.67
2022-10-12T04:54:51.495Z,41.58
2022-10-12T04:57:20.947Z,41.08
2022-10-12T04:59:48.103Z,39.55
2022-10-12T05:02:17.583Z,41.60
2022-10-12T05:04:46.903Z,41.03
2022-10-12T05:07:19.198Z,42.78
2022-10-12T05:09:46.262Z,41.47
2022-10-12T05:12:15.793Z,43.25
2022-10-12T05:14:45.642Z,43.42
2022-10-12T05:17:17.354Z,42.65
2022-10-12T05:19:46.731Z,41.40
2022-10-12T05:22:20.693Z,42.22
2022-10-12T05:24:52.749Z,43.03
2022-10-12T05:27:21.224Z,40.40
2022-10-12T05:29:48.457Z,38.55
2022-10-12T05:32:17.795Z,38.97
2022-10-12T05:34:51.744Z,42.75
2022-10-12T05:37:21.265Z,39.45
2022-10-12T05:39:51.691Z,42.03
2022-10-12T05:42:23.575Z,38.65
2022-10-12T05:44:58.048Z,40.28
2022-10-12T05:47:27.422Z,37.22
2022-10-12T05:49:59.163Z,39.10
2022-10-12T05:52:33.197Z,39.55
2022-10-12T05:55:00.498Z,40.53
2022-10-12T05:57:27.728Z,42.33
2022-10-12T05:59:57.093Z,39.88
2022-10-12T06:02:24.473Z,44.47
2022-10-12T06:04:53.768Z,43.17
2022-10-12T06:07:23.252Z,43.13
2022-10-12T06:12:24.075Z,49.05
2022-10-12T06:14:53.743Z,62.13
2022-10-12T06:17:23.650Z,55.75
2022-10-12T06:19:52.946Z,55.97
2022-10-12T06:22:20.386Z,54.53
2022-10-12T06:24:49.689Z,59.88
2022-10-12T06:27:19.768Z,65.25
2022-10-12T06:29:51.950Z,62.70
2022-10-12T06:32:24.070Z,65.28
2022-10-12T06:37:48.480Z,73.15
2022-10-12T06:40:15.473Z,71.60
2022-10-12T06:42:45.098Z,72.63
2022-10-12T06:45:14.686Z,71.32
2022-10-12T06:47:48.433Z,67.80
2022-10-12T06:50:20.483Z,67.13
2022-10-12T06:52:47.704Z,68.28
2022-10-12T06:55:15.043Z,55.88
2022-10-12T06:57:42.190Z,61.15
2022-10-12T07:00:09.968Z,54.05
2022-10-12T07:02:41.956Z,51.58
2022-10-12T07:05:10.061Z,51.90
2022-10-12T07:07:39.480Z,53.50
2022-10-12T07:10:07.490Z,48.17
2022-10-12T07:12:38.518Z,49.30
2022-10-12T07:15:07.374Z,44.83
2022-10-12T07:17:39.338Z,43.63
2022-10-12T07:20:16.139Z,32.97
2022-10-12T07:22:44.523Z,32.67
2022-10-12T07:25:16.410Z,21.98
2022-10-12T07:27:49.455Z,21.55
2022-10-12T07:30:21.470Z,21.33
2022-10-12T07:32:48.574Z,20.60
2022-10-12T07:35:18.476Z,21.17
2022-10-12T07:37:48.223Z,19.63
2022-10-12T07:40:17.598Z,15.88
2022-10-12T07:43:14.835Z,16.65
2022-10-12T07:45:39.803Z,15.35
2022-10-12T07:48:12.285Z,17.80
2022-10-12T07:50:41.702Z,18.02
2022-10-12T07:53:11.154Z,12.77
2022-10-12T07:55:45.123Z,10.90
2022-10-12T07:58:15.305Z,11.02
2022-10-12T08:00:42.390Z,8.10
2022-10-12T08:03:11.902Z,8.85
2022-10-12T08:05:41.267Z,7.47
2022-10-12T08:08:14.182Z,8.95
2022-10-12T08:10:45.803Z,7.15
2022-10-12T08:13:15.605Z,8.32
2022-10-12T08:15:55.773Z,7.35
2022-10-12T08:18:25.510Z,9.50
2022-10-12T08:20:53.571Z,6.93
2022-10-12T08:23:25.762Z,6.57
2022-10-12T08:25:54.242Z,6.18
2022-10-12T08:28:27.101Z,6.93
2022-10-12T08:30:59.183Z,6.63
2022-10-12T08:33:30.065Z,6.43
2022-10-12T08:36:03.270Z,7.90
2022-10-12T08:38:38.879Z,7.75
2022-10-12T08:41:27.273Z,7.82
2022-10-12T08:44:17.042Z,7.05
2022-10-12T08:46:44.448Z,6.45
2022-10-12T08:49:19.156Z,4.65
2022-10-12T08:51:57.663Z,4.75
2022-10-12T08:54:38.837Z,4.95
2022-10-12T08:57:18.930Z,6.10
2022-10-12T08:59:53.553Z,4.15
2022-10-12T09:02:41.281Z,6.63
2022-10-12T09:05:17.641Z,4.95
2022-10-12T09:08:26.701Z,6.18
2022-10-12T09:11:23.922Z,4.45
2022-10-12T09:14:44.000Z,4.07
2022-10-12T09:17:42.068Z,3.85
2022-10-12T09:20:32.821Z,2.95
2022-10-12T09:23:23.303Z,4.53
2022-10-12T09:26:05.641Z,4.30
2022-10-12T09:28:56.973Z,4.28
2022-10-12T09:31:42.831Z,3.88
2022-10-12T09:34:12.707Z,4.40
2022-10-12T09:36:42.350Z,4.78
2022-10-12T09:39:24.556Z,4.72
2022-10-12T09:42:00.258Z,3.88
2022-10-12T09:44:35.894Z,4.15
2022-10-12T09:47:06.417Z,3.50
2022-10-12T09:49:43.967Z,4.38
2022-10-12T09:52:17.801Z,4.07
2022-10-12T09:55:20.886Z,4.85
2022-10-12T09:57:59.714Z,4.30
2022-10-12T10:00:31.450Z,3.63
2022-10-12T10:03:03.003Z,4.45
2022-10-12T10:05:36.148Z,5.88
2022-10-12T10:08:14.604Z,4.45
2022-10-12T10:10:55.506Z,5.15
2022-10-12T10:13:26.494Z,5.40
2022-10-12T10:16:10.864Z,6.40
2022-10-12T10:18:48.699Z,5.97
2022-10-12T10:21:35.147Z,6.35
2022-10-12T10:24:09.637Z,7.10
2022-10-12T10:26:59.329Z,7.10
2022-10-12T10:29:34.810Z,6.72
2022-10-12T10:32:28.964Z,5.40
2022-10-12T10:35:09.633Z,4.40
2022-10-12T10:37:37.948Z,3.80
2022-10-12T10:40:06.151Z,4.43
2022-10-12T10:42:38.439Z,4.70
2022-10-12T10:45:08.690Z,3.70
2022-10-12T10:47:46.653Z,3.78
2022-10-12T10:50:29.066Z,4.88
2022-10-12T10:53:07.001Z,3.35
2022-10-12T10:55:42.434Z,3.33
2022-10-12T10:58:43.634Z,2.97
2022-10-12T11:01:32.931Z,4.25
2022-10-12T11:04:06.622Z,3.35
2022-10-12T11:06:47.886Z,3.33
2022-10-12T11:09:29.924Z,3.78
2022-10-12T11:12:07.990Z,3.13
2022-10-12T11:14:43.812Z,2.72
2022-10-12T11:17:20.091Z,3.33
2022-10-12T11:20:03.960Z,2.88
2022-10-12T11:22:49.970Z,2.30
2022-10-12T11:25:30.792Z,3.03
2022-10-12T11:28:00.184Z,1.98
2022-10-12T11:30:34.907Z,3.85
2022-10-12T11:33:15.569Z,1.90
2022-10-12T11:35:47.713Z,2.58
2022-10-12T11:38:28.926Z,2.65
2022-10-12T11:41:34.519Z,2.60
2022-10-12T11:44:05.389Z,3.10
2022-10-12T11:46:41.603Z,3.70
2022-10-12T11:49:22.874Z,3.00
2022-10-12T11:51:52.773Z,2.75
2022-10-12T11:54:41.802Z,2.97
2022-10-12T11:57:34.578Z,3.00
2022-10-12T12:00:19.494Z,3.08
2022-10-12T12:02:58.129Z,3.00
2022-10-12T12:05:34.610Z,3.13
2022-10-12T12:08:02.298Z,2.92
2022-10-12T12:10:31.767Z,2.55
2022-10-12T12:13:11.717Z,3.00
2022-10-12T12:15:42.747Z,2.95
2022-10-12T12:18:19.531Z,3.42
2022-10-12T12:20:48.891Z,1.95
2022-10-12T12:23:29.130Z,2.60
2022-10-12T12:26:16.294Z,1.90
2022-10-12T12:28:51.437Z,2.70
2022-10-12T12:31:24.009Z,1.85
2022-10-12T12:34:12.927Z,2.00
2022-10-12T12:36:47.634Z,1.85
2022-10-12T12:39:33.212Z,2.55
2022-10-12T12:42:08.452Z,2.08
2022-10-12T12:44:40.568Z,2.90
2022-10-12T12:50:41.887Z,2.20
2022-10-12T12:53:19.279Z,2.65
2022-10-12T12:56:13.099Z,2.85
2022-10-12T12:59:22.506Z,2.72
2022-10-12T13:02:30.937Z,2.58
2022-10-12T13:05:13.498Z,3.00
2022-10-12T13:08:08.082Z,2.03
2022-10-12T13:11:06.071Z,2.42
2022-10-12T13:13:42.022Z,3.10
2022-10-12T13:17:09.477Z,2.65
2022-10-12T13:19:21.932Z,3.30
2022-10-12T13:21:52.655Z,2.55
2022-10-12T13:24:28.494Z,2.97
2022-10-12T13:27:13.847Z,3.08
2022-10-12T13:29:52.244Z,3.58
2022-10-12T13:32:47.944Z,3.55
2022-10-12T13:35:35.294Z,2.90
2022-10-12T13:38:22.502Z,3.17
2022-10-12T13:41:03.295Z,1.85
2022-10-12T13:43:43.880Z,3.17
2022-10-12T13:46:36.184Z,3.95
2022-10-12T13:49:21.786Z,3.20
2022-10-12T13:51:57.935Z,2.42
2022-10-12T13:54:47.512Z,2.67
2022-10-12T13:57:30.311Z,2.95
2022-10-12T14:00:28.485Z,2.35
2022-10-12T14:02:59.734Z,2.83
2022-10-12T14:05:42.510Z,2.35
2022-10-12T14:08:21.926Z,3.05
2022-10-12T14:10:52.497Z,2.45
2022-10-12T14:13:33.727Z,3.13
2022-10-12T14:16:02.268Z,2.20
2022-10-12T14:18:43.988Z,11.75
2022-10-12T14:21:33.283Z,4.32
2022-10-12T14:24:09.962Z,3.53
2022-10-12T14:26:51.858Z,2.75
2022-10-12T14:29:45.291Z,4.20
2022-10-12T14:32:25.865Z,2.80
2022-10-12T14:35:11.080Z,2.72
2022-10-12T14:37:41.363Z,2.95
2022-10-12T14:40:20.483Z,3.05
2022-10-12T14:43:14.615Z,2.60
2022-10-12T14:45:44.045Z,2.47
2022-10-12T14:48:23.476Z,4.45
2022-10-12T14:50:53.845Z,2.53
2022-10-12T14:53:29.587Z,3.67
2022-10-12T14:55:56.634Z,3.42
2022-10-12T14:58:30.911Z,2.83
2022-10-12T15:00:58.086Z,2.45
2022-10-12T15:03:25.546Z,2.40
2022-10-12T15:05:59.638Z,2.55
2022-10-12T15:08:27.078Z,3.25
2022-10-12T15:10:54.145Z,3.40
2022-10-12T15:13:23.708Z,3.38
2022-10-12T15:16:00.553Z,3.60
2022-10-12T15:18:28.065Z,4.60
2022-10-12T15:21:00.416Z,2.75
2022-10-12T15:23:28.110Z,3.15
2022-10-12T15:25:56.598Z,2.95
2022-10-12T15:28:29.884Z,3.55
2022-10-12T15:31:18.395Z,4.10
2022-10-12T15:33:45.653Z,3.28
2022-10-12T15:36:12.889Z,3.35
2022-10-12T15:38:44.759Z,3.38
2022-10-12T15:41:26.436Z,3.72
2022-10-12T15:43:53.753Z,3.78
2022-10-12T15:46:20.984Z,4.05
2022-10-12T15:48:53.449Z,3.53
2022-10-12T15:51:26.447Z,3.80
2022-10-12T15:53:54.961Z,4.43
2022-10-12T15:56:22.921Z,3.38
2022-10-12T15:58:51.181Z,3.47
2022-10-12T16:01:25.468Z,4.43
2022-10-12T16:03:56.211Z,5.00
2022-10-12T16:06:23.402Z,4.40
2022-10-12T16:08:56.423Z,9.68
2022-10-12T16:11:28.910Z,7.05
2022-10-12T16:16:24.520Z,3.88
2022-10-12T16:18:54.294Z,5.47
2022-10-12T16:21:23.766Z,5.13
2022-10-12T16:23:58.312Z,6.22
2022-10-12T16:28:55.148Z,5.28
2022-10-12T16:31:22.701Z,6.40
2022-10-12T16:33:52.349Z,6.03
2022-10-12T16:38:54.338Z,6.32
2022-10-12T16:41:22.063Z,6.85
2022-10-12T16:43:49.509Z,6.63
2022-10-12T16:46:17.413Z,5.80
2022-10-12T16:48:46.804Z,6.75
2022-10-12T16:51:19.283Z,5.78
2022-10-12T16:53:46.465Z,5.90
2022-10-12T16:56:13.780Z,7.25
2022-10-12T16:58:50.062Z,7.32
2022-10-12T17:01:24.601Z,7.63
2022-10-12T17:03:59.307Z,6.70
2022-10-12T17:06:31.682Z,7.60
2022-10-12T17:08:59.206Z,7.50
2022-10-12T17:11:31.311Z,7.85
2022-10-12T17:13:58.847Z,7.85
2022-10-12T17:16:44.689Z,7.47
2022-10-12T17:19:11.830Z,8.60
2022-10-12T17:21:44.922Z,8.23
2022-10-12T17:24:21.368Z,7.57
2022-10-12T17:26:51.816Z,9.38
2022-10-12T17:29:24.579Z,12.68
2022-10-12T17:31:53.840Z,13.02
2022-10-12T17:34:28.247Z,13.02
2022-10-12T17:37:00.235Z,15.88
2022-10-12T17:39:34.437Z,16.55
2022-10-12T17:42:09.913Z,17.83
2022-10-12T17:44:42.190Z,25.02
2022-10-12T17:47:12.602Z,24.63
2022-10-12T17:49:39.837Z,22.85
2022-10-12T17:52:10.517Z,19.60
2022-10-12T17:54:39.961Z,15.93
2022-10-12T17:57:09.889Z,13.10
2022-10-12T17:59:37.092Z,14.20
2022-10-12T18:02:09.796Z,14.27
2022-10-12T18:04:39.702Z,11.80
2022-10-12T18:07:06.753Z,14.85
2022-10-12T18:09:33.853Z,29.45
2022-10-12T18:12:01.253Z,38.25
2022-10-12T18:14:33.027Z,17.05
2022-10-12T18:17:02.507Z,16.42
2022-10-12T18:19:29.943Z,15.68
2022-10-12T18:21:59.167Z,12.95
2022-10-12T18:24:28.553Z,11.77
2022-10-12T18:27:00.588Z,12.27
2022-10-12T18:29:29.854Z,14.45
2022-10-12T18:32:02.029Z,12.10
2022-10-12T18:34:38.240Z,11.55
2022-10-12T18:37:08.175Z,10.60
2022-10-12T18:39:35.377Z,10.13
2022-10-12T18:42:05.010Z,10.77
2022-10-12T18:44:34.301Z,11.80
2022-10-12T18:47:04.892Z,12.00
2022-10-12T18:49:32.187Z,10.98
2022-10-12T18:52:03.177Z,12.38
2022-10-12T18:54:32.888Z,11.18
2022-10-12T18:57:00.254Z,10.13
2022-10-12T18:59:27.459Z,10.52
2022-10-12T19:01:55.101Z,11.55
2022-10-12T19:04:24.625Z,10.68
2022-10-12T19:06:56.954Z,10.45
2022-10-12T19:09:27.571Z,13.15
2022-10-12T19:11:57.071Z,11.63
2022-10-12T19:14:29.043Z,11.73
2022-10-12T19:17:01.158Z,11.55
2022-10-12T19:19:28.518Z,11.35
2022-10-12T19:21:57.796Z,10.98
2022-10-12T19:24:27.307Z,15.20
2022-10-12T19:26:54.431Z,13.70
2022-10-12T19:29:26.994Z,12.60
2022-10-12T19:31:57.363Z,15.23
2022-10-12T19:34:30.636Z,13.27
2022-10-12T19:37:03.113Z,12.77
2022-10-12T19:39:32.980Z,12.60
2022-10-12T19:42:04.881Z,12.20
2022-10-12T19:44:34.235Z,13.20
2022-10-12T19:47:06.361Z,14.77
2022-10-12T19:52:09.272Z,13.27
2022-10-12T19:54:41.175Z,13.20
2022-10-12T19:57:11.096Z,13.57
2022-10-12T19:59:43.158Z,13.30
2022-10-12T20:02:18.606Z,15.32
2022-10-12T20:04:46.118Z,13.85
2022-10-12T20:07:15.421Z,22.00
2022-10-12T20:09:42.464Z,17.55
2022-10-12T20:12:09.837Z,18.45
2022-10-12T20:14:39.357Z,19.23
2022-10-12T20:17:11.212Z,18.40
2022-10-12T20:19:41.054Z,75.93
2022-10-12T20:22:08.633Z,24.02
2022-10-12T20:24:37.406Z,20.98
2022-10-12T20:27:09.673Z,24.27
2022-10-12T20:29:36.845Z,22.70
2022-10-12T20:32:04.230Z,22.35
2022-10-12T20:34:31.510Z,22.00
2022-10-12T20:37:02.924Z,27.98
2022-10-12T20:39:30.591Z,24.13
2022-10-12T20:41:57.620Z,24.45
2022-10-12T20:44:29.290Z,25.23
2022-10-12T20:46:56.706Z,28.88
2022-10-12T20:49:28.879Z,30.38
2022-10-12T20:51:55.966Z,27.23
2022-10-12T20:54:25.677Z,29.15
2022-10-12T20:56:55.498Z,27.23
2022-10-12T20:59:22.997Z,28.20
2022-10-12T21:01:50.107Z,26.42
2022-10-12T21:04:21.824Z,28.60
2022-10-12T21:06:53.687Z,27.35
2022-10-12T21:09:23.235Z,29.15
2022-10-12T21:12:00.124Z,27.15
2022-10-12T21:14:32.373Z,30.05
2022-10-12T21:17:01.972Z,28.67
2022-10-12T21:19:31.548Z,29.15
2022-10-12T21:22:10.960Z,29.23
2022-10-12T21:24:38.362Z,31.63
2022-10-12T21:27:10.888Z,29.65
2022-10-12T21:29:40.222Z,30.52
2022-10-12T21:34:39.470Z,28.98
2022-10-12T21:37:06.540Z,29.52
2022-10-12T21:39:36.137Z,27.35
2022-10-12T21:42:07.682Z,28.65
2022-10-12T21:44:39.654Z,28.58
2022-10-12T21:47:06.862Z,28.85
2022-10-12T21:49:33.905Z,26.80
2022-10-12T21:52:01.143Z,27.48
2022-10-12T21:54:28.300Z,26.85
2022-10-12T21:56:57.716Z,29.00
2022-10-12T21:59:26.386Z,25.80
2022-10-12T22:01:55.597Z,25.02
2022-10-12T22:04:28.478Z,26.60
2022-10-12T22:07:00.642Z,27.90
2022-10-12T22:09:30.838Z,26.50
2022-10-12T22:12:02.776Z,25.83
2022-10-12T22:14:30.399Z,22.80
2022-10-12T22:17:00.161Z,24.25
2022-10-12T22:19:29.823Z,23.23
2022-10-12T22:22:01.842Z,23.58
2022-10-12T22:24:31.289Z,22.75
2022-10-12T22:27:01.403Z,20.60
2022-10-12T22:29:28.633Z,22.67
2022-10-12T22:32:00.517Z,25.45
2022-10-12T22:34:28.291Z,23.92
2022-10-12T22:36:57.732Z,21.60
2022-10-12T22:39:27.366Z,21.90
2022-10-12T22:41:56.971Z,23.50
2022-10-12T22:44:31.147Z,22.60
2022-10-12T22:47:03.678Z,21.50
2022-10-12T22:49:31.062Z,21.75
2022-10-12T22:51:58.113Z,22.17
2022-10-12T22:54:26.698Z,21.98
2022-10-12T22:56:55.943Z,20.67
2022-10-12T22:59:28.979Z,20.05
2022-10-12T23:02:00.434Z,21.67
2022-10-12T23:04:30.310Z,21.42
2022-10-12T23:06:57.338Z,20.55
2022-10-12T23:09:31.729Z,20.55
2022-10-12T23:12:03.660Z,22.23
2022-10-12T23:14:33.917Z,21.08
2022-10-12T23:17:03.430Z,22.20
2022-10-12T23:19:32.943Z,24.27
2022-10-12T23:22:06.153Z,21.92
2022-10-12T23:24:35.752Z,24.20
2022-10-12T23:27:05.390Z,24.27
2022-10-12T23:29:36.572Z,23.58
2022-10-12T23:32:04.603Z,21.83
2022-10-12T23:34:33.877Z,24.30
2022-10-12T23:37:03.405Z,23.70
2022-10-12T23:39:38.281Z,23.52
2022-10-12T23:42:09.801Z,24.55
2022-10-12T23:44:37.193Z,22.52
2022-10-12T23:47:06.489Z,23.73
2022-10-12T23:49:35.634Z,24.33
2022-10-12T23:52:08.933Z,24.30
2022-10-12T23:54:40.762Z,23.95
2022-10-12T23:57:22.515Z,23.25
2022-10-12T23:59:57.538Z,24.85
